Time;durP1;ratioP1;P1;durP2;ratioP2;P2;SDS_P1;SDS_P2;PMS_P1;PMS_P2;Temp;Humidity;BMP_temperature;BMP_pressure;BME280_temperature;BME280_humidity;BME280_pressure;Samples;Min_cycle;Max_cycle;Signal;HPM_P1;HPM_P2
2022/05/11 00:03:21;;;;;;;3.28;2.03;;;17.60;74.50;;;;;;10371210;28;20389;-58
2022/05/11 00:08:21;;;;;;;4.47;2.10;;;17.50;74.40;;;;;;10371066;28;20062;-63
2022/05/11 00:13:22;;;;;;;3.50;1.92;;;17.50;74.40;;;;;;10370714;28;20041;-63
2022/05/11 00:18:23;;;;;;;3.50;1.98;;;17.50;74.50;;;;;;10370888;28;20527;-63
2022/05/11 00:23:24;;;;;;;2.63;1.90;;;17.50;74.50;;;;;;10370434;28;20129;-61
2022/05/11 00:28:25;;;;;;;3.10;1.85;;;17.50;74.50;;;;;;10370406;28;20036;-63
2022/05/11 00:33:26;;;;;;;3.25;1.80;;;17.50;74.60;;;;;;10370528;28;20022;-63
2022/05/11 00:38:29;;;;;;;2.70;2.00;;;17.40;74.50;;;;;;10370206;28;20116;-63
2022/05/11 00:43:35;;;;;;;3.47;2.13;;;17.40;74.60;;;;;;10369064;28;20083;-63
2022/05/11 00:53:55;;;;;;;8.45;2.10;;;17.40;74.70;;;;;;10370008;28;20491;-63
2022/05/11 00:59:02;;;;;;;3.75;1.80;;;17.40;74.80;;;;;;10369946;28;20125;-64
2022/05/11 01:04:07;;;;;;;2.78;1.58;;;17.30;74.80;;;;;;10369358;28;20082;-63
2022/05/11 01:09:10;;;;;;;2.92;1.70;;;17.30;74.90;;;;;;10368979;28;20542;-63
2022/05/11 01:14:13;;;;;;;2.00;1.50;;;17.30;74.90;;;;;;10368938;28;20084;-64
2022/05/11 01:19:26;;;;;;;3.92;1.70;;;17.30;75.00;;;;;;10368864;28;20360;-63
2022/05/11 01:24:39;;;;;;;2.13;1.65;;;17.30;75.20;;;;;;10368693;28;20513;-63
2022/05/11 01:29:39;;;;;;;2.33;1.58;;;17.30;75.20;;;;;;10368855;28;20026;-63
2022/05/11 01:34:40;;;;;;;3.28;1.70;;;17.30;75.20;;;;;;10368370;28;20057;-63
2022/05/11 01:39:44;;;;;;;2.03;1.63;;;17.20;75.10;;;;;;10368293;28;20018;-62
2022/05/11 01:44:45;;;;;;;2.85;1.77;;;17.20;75.20;;;;;;10367909;28;20059;-63
2022/05/11 01:49:45;;;;;;;3.08;1.77;;;17.20;75.20;;;;;;10367951;28;20347;-62
2022/05/11 01:54:46;;;;;;;2.50;1.50;;;17.20;75.30;;;;;;10367710;28;20030;-61
2022/05/11 01:59:47;;;;;;;2.70;1.70;;;17.20;75.40;;;;;;10367428;28;20091;-61
2022/05/11 02:10:07;;;;;;;2.63;1.90;;;17.10;75.50;;;;;;10367247;28;20142;-63
2022/05/11 02:15:09;;;;;;;5.45;2.17;;;17.10;75.50;;;;;;10367087;28;20375;-63
2022/05/11 02:20:12;;;;;;;3.78;1.50;;;17.10;75.60;;;;;;10367019;28;20102;-64
2022/05/11 02:25:15;;;;;;;2.15;1.60;;;17.10;75.60;;;;;;10366875;28;20045;-63
2022/05/11 02:30:24;;;;;;;2.70;1.65;;;17.10;75.60;;;;;;10366508;28;20167;-62
2022/05/11 02:35:25;;;;;;;;;;;17.10;75.70;;;;;;10366829;28;20034;-61
2022/05/11 02:40:31;;;;;;;3.15;1.63;;;17.10;76.10;;;;;;10366255;28;19937;-58
2022/05/11 02:45:34;;;;;;;3.67;1.85;;;17.10;75.60;;;;;;10365918;28;20026;-59
2022/05/11 02:50:41;;;;;;;2.40;1.73;;;17.00;75.60;;;;;;10366038;28;20021;-59
2022/05/11 02:55:44;;;;;;;4.93;3.05;;;17.00;75.70;;;;;;10365605;28;20150;-58
2022/05/11 03:00:48;;;;;;;3.15;1.60;;;17.00;75.70;;;;;;10348260;28;20057;-62
2022/05/11 03:05:52;;;;;;;2.35;1.70;;;17.00;75.80;;;;;;10364956;28;20057;-66
2022/05/11 03:10:53;;;;;;;2.80;1.58;;;17.00;75.80;;;;;;10365135;28;20030;-58
2022/05/11 03:15:54;;;;;;;1.92;1.50;;;17.00;75.80;;;;;;10365612;28;20048;-59
2022/05/11 03:20:56;;;;;;;5.32;1.52;;;16.90;75.80;;;;;;10365010;28;20560;-63
2022/05/11 03:25:57;;;;;;;3.47;1.60;;;17.00;75.90;;;;;;10364901;28;20071;-60
2022/05/11 03:30:58;;;;;;;2.85;1.70;;;16.90;75.90;;;;;;10364771;28;20441;-62
2022/05/11 03:35:59;;;;;;;3.03;1.45;;;16.90;75.90;;;;;;10364917;28;20161;-60
2022/05/11 03:41:00;;;;;;;2.08;1.58;;;16.90;75.90;;;;;;10364672;28;20116;-60
2022/05/11 03:46:01;;;;;;;5.93;1.88;;;16.90;75.90;;;;;;10364672;28;20041;-60
2022/05/11 03:51:01;;;;;;;2.80;1.50;;;16.90;75.90;;;;;;10364793;28;20021;-58
2022/05/11 03:56:02;;;;;;;5.47;1.50;;;16.90;76.00;;;;;;10364089;28;20099;-57
2022/05/11 04:01:03;;;;;;;3.95;1.58;;;16.90;76.00;;;;;;10364605;28;20022;-63
2022/05/11 04:06:04;;;;;;;2.90;1.85;;;16.90;76.00;;;;;;10363817;28;20050;-62
2022/05/11 04:11:05;;;;;;;3.83;1.63;;;16.90;76.10;;;;;;10363940;28;20069;-58
2022/05/11 04:16:07;;;;;;;4.07;1.40;;;16.90;76.10;;;;;;10363930;28;20041;-58
2022/05/11 04:21:08;;;;;;;2.40;1.40;;;16.90;76.10;;;;;;10369163;28;20030;-60
2022/05/11 04:26:11;;;;;;;2.45;1.60;;;16.80;76.10;;;;;;10370375;28;20046;-59
2022/05/11 04:31:13;;;;;;;5.32;1.83;;;16.80;76.20;;;;;;10370594;28;20550;-58
2022/05/11 04:36:13;;;;;;;1.88;1.45;;;16.80;76.20;;;;;;10370513;28;20030;-60
2022/05/11 04:41:14;;;;;;;4.82;1.95;;;16.80;76.20;;;;;;10370006;28;20030;-61
2022/05/11 04:46:15;;;;;;;3.50;1.67;;;16.80;76.90;;;;;;10369834;28;20393;-58
2022/05/11 04:51:16;;;;;;;3.45;1.60;;;16.80;76.30;;;;;;10370039;28;20113;-60
2022/05/11 04:56:16;;;;;;;2.33;1.50;;;16.80;76.40;;;;;;10369625;28;20044;-58
2022/05/11 05:01:18;;;;;;;3.50;1.70;;;16.80;76.40;;;;;;10369738;28;20026;-58
2022/05/11 05:06:19;;;;;;;4.45;1.83;;;16.80;76.40;;;;;;10369148;28;20394;-62
2022/05/11 05:11:20;;;;;;;6.00;2.15;;;16.80;76.50;;;;;;10369095;28;20541;-58
2022/05/11 05:16:21;;;;;;;2.97;1.48;;;16.80;76.60;;;;;;10369017;28;20030;-58
2022/05/11 05:21:22;;;;;;;6.85;2.35;;;16.80;76.60;;;;;;10368878;28;20097;-62
2022/05/11 05:26:24;;;;;;;5.78;2.15;;;16.80;76.70;;;;;;10368885;28;20545;-62
2022/05/11 05:31:29;;;;;;;8.73;2.08;;;16.80;77.10;;;;;;10367883;28;20044;-65
2022/05/11 05:36:33;;;;;;;4.82;2.00;;;16.90;77.30;;;;;;10368374;28;20022;-62
2022/05/11 05:41:33;;;;;;;5.07;1.95;;;16.90;77.20;;;;;;10368395;28;20026;-65
2022/05/11 05:46:35;;;;;;;4.18;1.90;;;16.90;77.20;;;;;;10368016;28;20057;-58
2022/05/11 05:51:37;;;;;;;6.38;2.33;;;16.90;77.30;;;;;;10368032;28;20067;-58
2022/05/11 05:56:38;;;;;;;3.92;1.92;;;16.80;77.20;;;;;;10367817;28;20052;-58
2022/05/11 06:01:39;;;;;;;4.05;2.20;;;16.90;77.40;;;;;;10367580;28;20072;-59
2022/05/11 06:06:39;;;;;;;5.90;2.05;;;16.90;77.40;;;;;;10367046;28;20086;-64
2022/05/11 06:11:41;;;;;;;3.60;1.90;;;16.80;77.50;;;;;;10367201;28;20125;-61
2022/05/11 06:16:41;;;;;;;4.40;1.60;;;16.90;77.60;;;;;;10367146;28;20026;-58
2022/05/11 06:21:43;;;;;;;4.60;1.83;;;16.90;77.60;;;;;;10366709;28;20111;-58
2022/05/11 06:26:44;;;;;;;3.85;1.60;;;16.90;77.60;;;;;;10366783;28;20054;-57
2022/05/11 06:31:45;;;;;;;3.97;2.10;;;16.90;77.50;;;;;;10366357;28;20523;-72
2022/05/11 06:36:45;;;;;;;4.47;1.67;;;16.90;77.50;;;;;;10366281;28;20390;-66
2022/05/11 06:41:46;;;;;;;5.18;1.83;;;17.00;77.40;;;;;;10365140;28;20622;-58
2022/05/11 06:46:47;;;;;;;3.15;1.50;;;17.00;77.30;;;;;;10366030;28;20038;-57
2022/05/11 06:51:48;;;;;;;2.60;1.38;;;17.00;77.20;;;;;;10365867;28;20113;-62
2022/05/11 07:02:07;;;;;;;6.57;1.55;;;17.00;77.00;;;;;;10365647;28;20450;-57
2022/05/11 07:07:08;;;;;;;6.03;1.75;;;17.00;76.80;;;;;;10365030;28;20095;-63
2022/05/11 07:12:20;;;;;;;3.90;1.80;;;17.10;76.90;;;;;;10365338;28;20044;-58
2022/05/11 07:17:38;;;;;;;3.75;1.40;;;17.10;76.80;;;;;;10365099;28;20034;-57
2022/05/11 07:22:39;;;;;;;2.90;1.15;;;17.10;76.60;;;;;;10364812;28;20053;-59
2022/05/11 07:27:42;;;;;;;4.45;1.52;;;17.20;76.60;;;;;;10364760;28;20045;-61
2022/05/11 07:32:43;;;;;;;2.45;1.30;;;17.20;76.40;;;;;;10347507;28;20075;-63
2022/05/11 07:37:47;;;;;;;3.22;1.48;;;17.20;76.40;;;;;;10364837;28;20034;-62
2022/05/11 07:42:48;;;;;;;3.63;1.15;;;17.20;76.30;;;;;;10362406;28;20019;-59
2022/05/11 07:47:49;;;;;;;3.53;1.23;;;17.20;76.10;;;;;;10363088;28;20042;-64
2022/05/11 07:52:50;;;;;;;3.70;1.40;;;17.30;76.00;;;;;;10363604;28;20069;-57
2022/05/11 08:03:11;;;;;;;4.03;1.00;;;17.40;76.00;;;;;;10370311;28;20113;-68
2022/05/11 08:08:12;;;;;;;3.35;1.15;;;17.40;75.80;;;;;;10369533;28;20140;-57
2022/05/11 08:13:13;;;;;;;3.58;1.10;;;17.40;75.70;;;;;;10369359;28;20075;-66
2022/05/11 08:18:15;;;;;;;3.33;1.35;;;17.50;75.60;;;;;;10369486;28;20513;-58
2022/05/11 08:23:16;;;;;;;3.20;1.30;;;17.60;75.50;;;;;;10369064;28;20130;-66
2022/05/11 08:28:20;;;;;;;5.88;1.48;;;17.50;75.50;;;;;;10368630;28;20129;-58
2022/05/11 08:33:26;;;;;;;5.72;1.27;;;17.60;75.50;;;;;;10368552;28;20158;-59
2022/05/11 08:38:32;;;;;;;2.58;1.00;;;17.70;75.40;;;;;;10368551;28;20034;-63
2022/05/11 08:43:35;;;;;;;4.72;1.10;;;17.70;75.20;;;;;;10368269;28;20052;-67
2022/05/11 08:48:59;;;;;;;1.63;1.00;;;17.80;75.00;;;;;;10368325;28;20128;-62
2022/05/11 08:54:41;;;;;;;5.93;1.33;;;17.90;75.80;;;;;;10368021;28;20028;-61
2022/05/11 08:59:43;;;;;;;4.32;1.25;;;17.80;74.50;;;;;;10367711;28;20033;-60
2022/05/11 09:04:51;;;;;;;5.93;1.13;;;17.80;74.80;;;;;;10366405;28;20042;-60
2022/05/11 09:09:53;;;;;;;9.52;1.33;;;17.80;74.30;;;;;;10367397;28;20038;-75
2022/05/11 09:14:59;;;;;;;4.28;1.08;;;17.80;74.30;;;;;;10367441;28;20030;-65
2022/05/11 09:20:02;;;;;;;5.65;1.33;;;17.80;74.30;;;;;;10367210;28;20057;-67
2022/05/11 09:25:24;;;;;;;3.75;0.82;;;17.90;73.80;;;;;;10367101;28;20033;-62
2022/05/11 09:30:30;;;;;;;4.45;1.00;;;17.90;73.30;;;;;;10367036;28;20063;-61
2022/05/11 09:35:36;;;;;;;2.88;1.08;;;17.90;73.70;;;;;;10366653;28;20036;-67
2022/05/11 09:41:00;;;;;;;4.47;0.98;;;18.00;73.20;;;;;;10366570;28;20037;-61
2022/05/11 09:46:22;;;;;;;3.05;0.88;;;18.10;72.70;;;;;;10366284;28;20042;-68
2022/05/11 09:51:33;;;;;;;4.00;1.00;;;18.20;71.90;;;;;;10366187;28;20036;-69
2022/05/11 09:56:36;;;;;;;2.63;0.70;;;18.30;71.70;;;;;;10366079;28;20158;-64
2022/05/11 10:01:37;;;;;;;4.85;0.77;;;18.40;71.20;;;;;;10365727;28;20077;-60
2022/05/11 10:06:51;;;;;;;2.78;0.65;;;18.60;70.80;;;;;;10365266;28;20053;-61
2022/05/11 10:11:52;;;;;;;12.40;0.93;;;18.70;69.30;;;;;;10366626;28;20029;-62
2022/05/11 10:22:19;;;;;;;7.00;0.93;;;18.80;69.30;;;;;;10366836;28;20026;-61
2022/05/11 10:27:20;;;;;;;5.55;1.10;;;18.80;69.70;;;;;;10366570;28;20131;-60
2022/05/11 10:32:24;;;;;;;3.72;1.20;;;18.80;69.90;;;;;;10366110;28;20018;-60
2022/05/11 10:37:28;;;;;;;3.28;1.08;;;18.80;69.90;;;;;;10366147;28;20037;-59
2022/05/11 10:42:51;;;;;;;3.42;1.10;;;18.90;70.20;;;;;;10365834;28;20033;-66
2022/05/11 10:48:16;;;;;;;7.05;1.40;;;19.10;71.20;;;;;;10365645;28;20124;-59
2022/05/11 10:53:39;;;;;;;8.20;1.75;;;19.20;71.00;;;;;;10365885;28;20523;-59
2022/05/11 10:58:58;;;;;;;6.55;1.65;;;19.20;70.90;;;;;;10365562;28;20064;-68
2022/05/11 11:04:42;;;;;;;7.47;2.33;;;19.30;72.00;;;;;;10365186;28;20470;-64
2022/05/11 11:09:55;;;;;;;4.35;0.90;;;19.40;71.40;;;;;;10364766;28;20046;-65
2022/05/11 11:14:59;;;;;;;5.60;1.38;;;19.40;71.60;;;;;;10365222;28;20026;-64
2022/05/11 11:20:05;;;;;;;7.40;1.27;;;19.40;71.60;;;;;;10365211;28;20026;-64
2022/05/11 11:25:14;;;;;;;6.95;1.85;;;19.40;71.90;;;;;;10365098;28;20030;-64
2022/05/11 11:30:20;;;;;;;8.75;1.33;;;19.40;72.00;;;;;;10363678;28;20113;-60
2022/05/11 11:35:24;;;;;;;6.55;0.90;;;19.40;72.00;;;;;;10365352;28;20052;-56
2022/05/11 11:40:28;;;;;;;5.65;1.23;;;19.50;72.00;;;;;;10364818;28;20160;-56
2022/05/11 11:45:37;;;;;;;5.05;1.40;;;19.50;72.00;;;;;;10364625;28;20030;-57
2022/05/11 11:51:00;;;;;;;7.63;1.40;;;19.60;72.00;;;;;;10364600;28;20151;-57
2022/05/11 11:56:27;;;;;;;4.40;1.15;;;19.60;71.90;;;;;;10364069;28;20028;-56
2022/05/11 12:01:32;;;;;;;2.77;1.00;;;19.70;71.80;;;;;;10361908;28;20059;-69
2022/05/11 12:17:24;;;;;;;3.28;1.20;;;19.90;71.60;;;;;;10364005;28;20117;-62
2022/05/11 12:22:25;;;;;;;3.65;1.20;;;20.00;71.50;;;;;;10363571;28;20029;-60
2022/05/11 12:27:30;;;;;;;4.45;1.08;;;20.00;71.40;;;;;;10363627;28;20038;-58
2022/05/11 12:32:37;;;;;;;5.15;1.30;;;20.00;71.30;;;;;;10363838;28;20018;-68
2022/05/11 12:37:39;;;;;;;4.60;1.30;;;20.10;71.10;;;;;;10363834;28;20052;-62
2022/05/11 12:42:41;;;;;;;7.00;1.42;;;20.20;71.20;;;;;;10368438;28;20099;-59
2022/05/11 12:47:56;;;;;;;6.43;1.40;;;20.10;71.00;;;;;;10370093;28;20045;-57
2022/05/11 12:53:20;;;;;;;6.90;1.63;;;20.10;71.20;;;;;;10370120;28;20493;-74
2022/05/11 12:58:28;;;;;;;4.97;1.33;;;20.20;71.20;;;;;;10369196;28;20174;-74
2022/05/11 13:03:37;;;;;;;7.50;1.37;;;20.20;71.20;;;;;;10369428;28;20074;-65
2022/05/11 13:08:45;;;;;;;7.07;1.58;;;20.30;71.20;;;;;;10369155;28;20305;-59
2022/05/11 13:13:52;;;;;;;3.75;0.88;;;20.30;71.20;;;;;;10369192;28;20031;-74
2022/05/11 13:19:19;;;;;;;3.40;1.20;;;20.40;71.30;;;;;;10369051;28;20026;-68
2022/05/11 13:24:45;;;;;;;7.05;1.50;;;20.50;71.30;;;;;;10368761;28;20026;-74
2022/05/11 13:29:45;;;;;;;6.40;1.48;;;20.60;71.30;;;;;;10368766;28;20018;-57
2022/05/11 13:34:46;;;;;;;3.55;1.20;;;20.90;71.20;;;;;;10368761;28;20112;-69
2022/05/11 13:39:49;;;;;;;4.13;1.10;;;20.80;70.90;;;;;;10368356;28;20490;-72
2022/05/11 13:44:56;;;;;;;3.70;1.40;;;20.90;71.00;;;;;;10368205;28;20049;-72
2022/05/11 13:49:57;;;;;;;5.15;1.50;;;21.00;71.10;;;;;;10368114;28;20029;-58
2022/05/11 13:54:58;;;;;;;2.35;1.10;;;21.10;71.00;;;;;;10367699;28;20048;-57
2022/05/11 14:00:10;;;;;;;7.82;1.75;;;21.10;70.90;;;;;;10367774;28;20394;-67
2022/05/11 14:05:11;;;;;;;2.95;1.15;;;21.30;70.80;;;;;;10367486;28;20038;-64
2022/05/11 14:10:12;;;;;;;5.82;1.13;;;21.40;70.70;;;;;;10367366;28;20046;-68
2022/05/11 14:15:15;;;;;;;5.82;1.40;;;21.50;70.60;;;;;;10366941;28;20030;-70
2022/05/11 14:20:22;;;;;;;2.80;1.08;;;21.50;70.70;;;;;;10367020;28;20466;-59
2022/05/11 14:25:23;;;;;;;3.75;1.00;;;21.60;70.70;;;;;;10366333;28;20046;-73
2022/05/11 14:30:25;;;;;;;3.83;1.50;;;21.50;70.70;;;;;;10366844;28;20026;-72
2022/05/11 14:35:27;;;;;;;4.18;1.17;;;21.50;70.80;;;;;;10366786;28;20493;-64
2022/05/11 14:40:29;;;;;;;3.45;1.25;;;21.50;70.90;;;;;;10366746;28;20057;-58
2022/05/11 14:45:30;;;;;;;3.35;1.38;;;21.50;71.10;;;;;;10366325;28;20034;-65
2022/05/11 14:50:31;;;;;;;2.47;1.30;;;21.50;71.20;;;;;;10366342;28;20104;-59
2022/05/11 14:55:32;;;;;;;4.85;1.23;;;21.50;71.30;;;;;;10366154;28;20030;-64
2022/05/11 15:05:53;;;;;;;3.67;0.90;;;21.70;70.60;;;;;;10363419;28;20406;-67
2022/05/11 15:13:30;;;;;;;5.68;1.20;;;21.90;70.50;;;;;;10363959;28;20025;-67
2022/05/11 15:16:14;;;;;;;4.82;1.67;;;21.90;70.40;;;;;;10363815;28;20103;-65
2022/05/11 15:21:17;;;;;;;7.57;1.20;;;22.00;70.20;;;;;;10364107;28;20032;-61
2022/05/11 15:26:18;;;;;;;3.42;1.20;;;22.10;69.80;;;;;;10363763;28;20406;-62
2022/05/11 15:31:19;;;;;;;4.35;1.45;;;22.10;69.70;;;;;;10363696;28;20029;-62
2022/05/11 15:36:19;;;;;;;2.88;1.20;;;22.00;69.80;;;;;;10363454;28;20504;-71
2022/05/11 15:41:21;;;;;;;7.13;2.08;;;21.90;69.80;;;;;;10363469;28;20495;-68
2022/05/11 15:46:22;;;;;;;2.90;1.50;;;21.90;69.10;;;;;;10363089;28;20176;-62
2022/05/11 15:51:23;;;;;;;4.35;1.33;;;21.70;68.40;;;;;;10363227;28;20121;-67
2022/05/11 15:56:24;;;;;;;8.20;1.27;;;21.60;68.30;;;;;;10362733;28;20063;-61
2022/05/11 16:01:28;;;;;;;5.35;1.15;;;21.50;68.80;;;;;;10362600;28;20026;-61
2022/05/11 16:06:29;;;;;;;5.95;1.25;;;21.50;69.00;;;;;;10362539;28;20057;-64
2022/05/11 16:11:32;;;;;;;3.90;1.02;;;21.50;69.30;;;;;;10362503;28;20124;-61
2022/05/11 16:16:33;;;;;;;4.72;1.27;;;21.40;69.50;;;;;;10367201;28;20113;-70
2022/05/11 16:21:35;;;;;;;4.45;1.20;;;21.40;69.80;;;;;;10369407;28;20109;-71
2022/05/11 16:26:36;;;;;;;5.75;1.55;;;21.30;70.00;;;;;;10369203;28;20226;-61
2022/05/11 16:31:38;;;;;;;3.47;1.83;;;21.20;70.30;;;;;;10368848;28;20076;-68
2022/05/11 16:36:39;;;;;;;6.47;1.73;;;21.20;70.60;;;;;;10369002;28;20108;-63
2022/05/11 16:41:40;;;;;;;10.75;1.90;;;20.90;70.20;;;;;;10368829;28;20037;-65
2022/05/11 16:46:41;;;;;;;7.45;1.85;;;20.50;70.50;;;;;;10368496;28;20087;-66
2022/05/11 16:51:41;;;;;;;14.45;2.88;;;20.10;71.20;;;;;;10368080;28;20026;-60
2022/05/11 16:56:42;;;;;;;10.55;1.83;;;19.90;71.60;;;;;;10368291;28;20162;-62
2022/05/11 17:01:43;;;;;;;6.07;2.15;;;19.70;72.10;;;;;;10368299;28;20038;-63
2022/05/11 17:06:44;;;;;;;5.57;2.40;;;19.70;72.40;;;;;;10367955;28;20062;-65
2022/05/11 17:11:48;;;;;;;9.65;2.55;;;19.80;72.20;;;;;;10367951;28;20404;-62
2022/05/11 17:16:49;;;;;;;7.32;2.58;;;19.90;72.00;;;;;;10367825;28;20033;-67
2022/05/11 17:21:50;;;;;;;9.75;1.98;;;20.00;71.90;;;;;;10367827;28;20030;-61
2022/05/11 17:26:51;;;;;;;6.93;1.90;;;20.10;71.90;;;;;;10366522;28;20375;-61
2022/05/11 17:31:52;;;;;;;4.20;1.95;;;20.10;71.90;;;;;;10367530;28;20022;-62
2022/05/11 17:36:52;;;;;;;7.10;2.00;;;20.10;71.90;;;;;;10367144;28;20033;-64
2022/05/11 17:41:56;;;;;;;4.82;1.65;;;20.20;72.10;;;;;;10367125;28;20413;-59
2022/05/11 17:46:57;;;;;;;5.32;1.88;;;20.20;72.10;;;;;;10366763;28;20030;-61
2022/05/11 17:51:58;;;;;;;5.45;2.08;;;20.10;72.20;;;;;;10366766;28;20136;-66
2022/05/11 17:56:58;;;;;;;4.30;1.77;;;20.10;72.30;;;;;;10366590;28;20112;-61
2022/05/11 18:01:59;;;;;;;5.43;1.80;;;20.10;72.40;;;;;;10366387;28;20150;-59
2022/05/11 18:07:01;;;;;;;4.88;1.60;;;20.00;72.50;;;;;;10365037;28;20053;-67
2022/05/11 18:12:02;;;;;;;5.50;1.58;;;20.10;72.70;;;;;;10364879;28;20053;-63
2022/05/11 18:17:03;;;;;;;4.38;1.60;;;20.00;72.70;;;;;;10365631;28;20037;-60
2022/05/11 18:22:03;;;;;;;4.28;1.65;;;20.10;72.90;;;;;;10367165;28;20030;-64
2022/05/11 18:27:04;;;;;;;3.25;1.55;;;20.00;73.00;;;;;;10366682;28;20070;-69
2022/05/11 18:32:06;;;;;;;2.75;1.27;;;19.90;73.20;;;;;;10367164;28;20094;-66
2022/05/11 18:37:09;;;;;;;3.80;1.60;;;19.90;73.40;;;;;;10366942;28;20030;-70
2022/05/11 18:42:11;;;;;;;5.28;1.52;;;19.80;73.90;;;;;;10366564;28;20026;-69
2022/05/11 18:47:12;;;;;;;5.00;1.52;;;19.80;73.50;;;;;;10366714;28;20397;-62
2022/05/11 18:52:12;;;;;;;6.00;1.48;;;19.80;73.60;;;;;;10366076;28;20033;-65
2022/05/11 18:57:13;;;;;;;5.25;1.70;;;19.80;73.60;;;;;;10366183;28;20034;-69
2022/05/11 19:02:14;;;;;;;4.63;1.63;;;19.60;73.90;;;;;;10365685;28;20505;-59
2022/05/11 19:07:15;;;;;;;5.93;1.58;;;19.50;74.10;;;;;;10365460;28;20054;-65
2022/05/11 19:12:17;;;;;;;7.43;1.98;;;19.50;74.20;;;;;;10365463;28;20045;-66
2022/05/11 19:17:18;;;;;;;3.88;1.40;;;19.50;74.20;;;;;;10365490;28;20466;-65
2022/05/11 19:22:18;;;;;;;4.55;2.00;;;19.50;74.20;;;;;;10365484;28;20123;-66
2022/05/11 19:27:21;;;;;;;4.90;1.50;;;19.50;74.20;;;;;;10364994;28;20034;-65
2022/05/11 19:32:21;;;;;;;4.60;1.77;;;19.50;74.20;;;;;;10365522;28;20027;-65
2022/05/11 19:37:22;;;;;;;5.72;1.50;;;19.50;74.20;;;;;;10364711;28;20091;-60
2022/05/11 19:42:23;;;;;;;9.75;1.33;;;19.50;74.20;;;;;;10364770;28;20030;-65
2022/05/11 19:47:23;;;;;;;2.50;1.52;;;19.40;74.30;;;;;;10364687;28;20463;-61
2022/05/11 19:52:24;;;;;;;3.17;1.60;;;19.40;74.40;;;;;;10370618;28;20078;-66
2022/05/11 19:57:25;;;;;;;6.45;1.33;;;19.30;75.20;;;;;;10371666;28;20045;-63
2022/05/11 20:02:26;;;;;;;5.75;1.63;;;19.30;74.90;;;;;;10371670;28;20028;-59
2022/05/11 20:07:28;;;;;;;3.42;1.33;;;19.20;75.20;;;;;;10371444;28;20146;-61
2022/05/11 20:12:29;;;;;;;4.60;1.50;;;19.20;75.30;;;;;;10371466;28;20084;-64
2022/05/11 20:17:29;;;;;;;5.88;1.40;;;19.10;75.60;;;;;;10371197;28;20022;-58
2022/05/11 20:22:30;;;;;;;2.95;1.42;;;19.10;75.80;;;;;;10371027;28;20470;-59
2022/05/11 20:27:35;;;;;;;2.33;1.25;;;19.10;76.10;;;;;;10370578;28;20117;-63
2022/05/11 20:37:58;;;;;;;6.03;1.40;;;19.00;76.50;;;;;;10370392;28;20049;-59
2022/05/11 20:42:59;;;;;;;2.95;1.30;;;19.00;76.70;;;;;;10370288;28;20490;-64
2022/05/11 20:48:03;;;;;;;3.97;1.45;;;18.90;76.90;;;;;;10369933;28;20042;-59
2022/05/11 20:53:05;;;;;;;2.25;1.23;;;18.90;77.20;;;;;;10369887;28;20022;-59
2022/05/11 20:58:08;;;;;;;4.65;1.27;;;18.90;77.40;;;;;;10369721;28;20026;-59
2022/05/11 21:03:09;;;;;;;3.85;1.30;;;18.80;77.50;;;;;;10368336;28;20541;-61
2022/05/11 21:08:11;;;;;;;3.67;1.65;;;18.80;77.60;;;;;;10369219;28;20148;-62
2022/05/11 21:13:12;;;;;;;3.92;1.20;;;18.80;77.80;;;;;;10369504;28;20042;-64
2022/05/11 21:18:13;;;;;;;3.80;1.30;;;18.70;78.00;;;;;;10368998;28;20030;-61
2022/05/11 21:23:14;;;;;;;3.97;1.35;;;18.70;78.20;;;;;;10369023;28;20029;-64
2022/05/11 21:28:14;;;;;;;2.53;1.42;;;18.70;78.50;;;;;;10368875;28;20553;-60
2022/05/11 21:33:15;;;;;;;2.33;1.20;;;18.60;78.40;;;;;;10369118;28;20030;-59
2022/05/11 21:38:16;;;;;;;2.10;1.17;;;18.60;78.60;;;;;;10368830;28;20030;-65
2022/05/11 21:43:16;;;;;;;2.53;1.38;;;18.60;78.70;;;;;;10368666;28;20390;-69
2022/05/11 21:48:17;;;;;;;3.88;1.27;;;18.60;78.90;;;;;;10367781;28;20029;-60
2022/05/11 21:53:18;;;;;;;2.20;1.38;;;18.60;79.00;;;;;;10368142;28;20112;-58
2022/05/11 21:58:18;;;;;;;2.72;1.40;;;18.50;79.10;;;;;;10367969;28;20125;-65
2022/05/11 22:03:19;;;;;;;4.22;1.50;;;18.50;79.20;;;;;;10367735;28;20030;-58
2022/05/11 22:08:21;;;;;;;2.35;1.15;;;18.40;79.30;;;;;;10367088;28;20543;-68
2022/05/11 22:13:22;;;;;;;2.92;1.10;;;18.40;79.40;;;;;;10367189;28;20033;-64
2022/05/11 22:18:23;;;;;;;4.65;1.25;;;18.40;79.60;;;;;;10367320;28;20014;-64
2022/05/11 22:23:24;;;;;;;5.05;1.63;;;18.40;79.70;;;;;;10367057;28;20033;-67
2022/05/11 22:28:24;;;;;;;3.00;1.10;;;18.30;79.70;;;;;;10367160;28;20395;-61
2022/05/11 22:33:25;;;;;;;3.05;1.40;;;18.30;79.80;;;;;;10366823;28;20036;-59
2022/05/11 22:38:30;;;;;;;3.90;1.35;;;18.30;79.80;;;;;;10366612;28;20449;-60
2022/05/11 22:43:31;;;;;;;4.40;2.45;;;18.30;79.90;;;;;;10366490;28;20026;-62
2022/05/11 22:48:32;;;;;;;2.45;1.13;;;18.20;79.80;;;;;;10366311;28;20078;-63
2022/05/11 22:53:33;;;;;;;4.93;2.00;;;18.20;79.80;;;;;;10366031;28;20072;-69
2022/05/11 22:58:33;;;;;;;2.67;0.90;;;18.20;79.80;;;;;;10366371;28;20030;-68
2022/05/11 23:03:34;;;;;;;2.60;1.00;;;18.10;79.80;;;;;;10365892;28;20109;-58
2022/05/11 23:08:37;;;;;;;4.63;0.93;;;18.10;79.80;;;;;;10365479;28;20414;-67
2022/05/11 23:13:38;;;;;;;4.38;1.08;;;18.10;79.70;;;;;;10365808;28;20506;-61
2022/05/11 23:18:38;;;;;;;3.10;1.00;;;18.00;79.60;;;;;;10365413;28;20091;-65
2022/05/11 23:23:39;;;;;;;3.47;1.10;;;18.00;79.60;;;;;;10364626;28;20022;-68
2022/05/11 23:28:40;;;;;;;2.08;0.77;;;17.90;79.50;;;;;;10365241;28;20033;-59
2022/05/11 23:33:40;;;;;;;4.28;0.90;;;17.90;79.50;;;;;;10365045;28;20542;-59
2022/05/11 23:38:41;;;;;;;1.55;0.75;;;17.90;79.50;;;;;;10365059;28;20067;-59
2022/05/11 23:43:42;;;;;;;5.90;0.80;;;17.80;79.40;;;;;;10347247;28;20034;-68
2022/05/11 23:48:42;;;;;;;2.38;0.75;;;17.80;79.30;;;;;;10364845;28;20054;-61
2022/05/11 23:53:43;;;;;;;2.35;0.70;;;17.80;79.30;;;;;;10364743;28;20029;-69
2022/05/11 23:58:44;;;;;;;1.95;0.75;;;17.70;79.20;;;;;;10364717;28;20026;-65
